Lakeville, Massachusetts
Current Conditions -  °F | °C
As of 6:31 AM on Thursday 18 Dec 2014 (Local Time) from KTAN Reporting Station
Light Rain Light Rain  
Wind Chill: 32°   Ceiling: 2900
Heat Index: 37°   Visibility: 10mi
Dew Point: 31°   Wind: 7mph
Humidity: 79%   Direction: 280°W
Pressure: 29.76"   Gusts: 22mph
Location:  41.85°N, 70.95°W
Report Text: KTAN 181131Z AUTO 28006G19KT 10SM -RA FEW018 BKN029 OVC048 03/M01 A2976 RMK AO2 RAB16 P0000 T00281006
Loading
Personal Weather Stations






























Interactive Weather Map New forecast layout! Learn more

10-Day Weather Forecast

Advertisements
Track Severe Weather on mobile